KETH

Wheaton Municipal Airport

Wheaton, Minnesota, USA
METAR KETH 260314Z AUTO 17005KT 10SM CLR M14/M17 A2988 RMK AO2
Observed Flight Rules
Feb-26 @ 03:14 UTC (17 minutes ago) Visual Flight Rules
Wind Visibility Clouds
170° at 5 knots 10 miles
  • Clear skies
Temperatures Readings
Current -14°C / 7°F
Dewpoint -17°C / 1°F
Humidity 78%
Altimeter 29.88" Hg
Pressure 1012 hPa
Elevation 313
METAR KETH 260314Z AUTO 17005KT 10SM CLR M14/M17 A2988 RMK AO2
Observed Flight Rules
Feb-26 @ 03:14 UTC
(17 minutes ago)
VFR
Wind Visibility
170° at 5 knots 10 miles
Clouds
  • Clear skies
Temperature Dewpoint
-14°C / 7°F -17°C / 1°F
Humidity Altimeter Pressure
78% 29.88" Hg 1012 hPa